Prairie, Nebraska
Current Conditions -  °F | °C
As of 9:35 PM on Friday 24 Oct 2014 (Local Time) from KHDE Reporting Station
Haze Haze  
Wind Chill: 57°   Ceiling: Unl
Heat Index: 57°   Visibility: 5mi
Dew Point: 38°   Wind: 0mph
Humidity: 49%   Direction: NA
Pressure: 30.02"   Gusts: NA
Location:  40.4958°N, 99.3198°W
Report Text: KHDE 250235Z AUTO 00000KT 5SM HZ CLR 14/03 A3002 RMK AO2 T01410034
Loading
Personal Weather Stations






























Interactive Weather Map
Tropical Storm Tracking
New forecast layout! Learn more

10-Day Weather Forecast

Advertisements
Track Severe Weather on mobile